Abeytas, New Mexico
Current Conditions -  °F | °C
As of 4:55 PM on Friday 21 Nov 2014 (Local Time) from KE80 Reporting Station
Clear Clear  
Wind Chill: 49°   Ceiling: Unl
Heat Index: 49°   Visibility: 10mi
Dew Point: 18°   Wind: 0mph
Humidity: 29%   Direction: NA
Pressure: 30.02"   Gusts: NA
Location:  34.4828°N, 106.804°W
Report Text: KE80 212355Z AUTO 00000KT 10SM CLR 09/M08 A3002 RMK AO2 T00931080 10118 20079
Loading
Personal Weather Stations






























Interactive Weather Map New forecast layout! Learn more

10-Day Weather Forecast

Advertisements
Track Severe Weather on mobile